sensor_id;sensor_type;location;lat;lon;timestamp;temperature;humidity
84971;DHT22;75278;51.926;4.562;2024-01-25T00:01:17;7.8;84
84971;DHT22;75278;51.926;4.562;2024-01-25T00:03:17;7.8;84
84971;DHT22;75278;51.926;4.562;2024-01-25T00:05:17;7.8;84
84971;DHT22;75278;51.926;4.562;2024-01-25T00:07:17;7.7;85
84971;DHT22;75278;51.926;4.562;2024-01-25T00:09:17;7.7;85
84971;DHT22;75278;51.926;4.562;2024-01-25T00:11:20;7.7;85
84971;DHT22;75278;51.926;4.562;2024-01-25T00:13:17;7.7;86
84971;DHT22;75278;51.926;4.562;2024-01-25T00:15:17;7.6;86
84971;DHT22;75278;51.926;4.562;2024-01-25T00:17:17;7.6;86
84971;DHT22;75278;51.926;4.562;2024-01-25T00:19:17;7.6;86
84971;DHT22;75278;51.926;4.562;2024-01-25T00:21:17;7.5;86
84971;DHT22;75278;51.926;4.562;2024-01-25T00:23:17;7.5;86
84971;DHT22;75278;51.926;4.562;2024-01-25T00:25:17;7.5;87
84971;DHT22;75278;51.926;4.562;2024-01-25T00:27:17;7.4;87
84971;DHT22;75278;51.926;4.562;2024-01-25T00:29:17;7.4;87
84971;DHT22;75278;51.926;4.562;2024-01-25T00:31:17;7.4;87
84971;DHT22;75278;51.926;4.562;2024-01-25T00:33:17;7.4;87
84971;DHT22;75278;51.926;4.562;2024-01-25T00:35:17;7.4;87
84971;DHT22;75278;51.926;4.562;2024-01-25T00:37:17;7.3;87
84971;DHT22;75278;51.926;4.562;2024-01-25T00:39:17;7.3;88
84971;DHT22;75278;51.926;4.562;2024-01-25T00:41:17;7.3;88
84971;DHT22;75278;51.926;4.562;2024-01-25T00:43:17;7.2;88
84971;DHT22;75278;51.926;4.562;2024-01-25T00:45:17;7.2;88
84971;DHT22;75278;51.926;4.562;2024-01-25T00:47:17;7.2;88
84971;DHT22;75278;51.926;4.562;2024-01-25T00:49:17;7.2;88
84971;DHT22;75278;51.926;4.562;2024-01-25T00:51:19;7.1;88
84971;DHT22;75278;51.926;4.562;2024-01-25T00:53:17;7.1;88
84971;DHT22;75278;51.926;4.562;2024-01-25T00:55:17;7.1;88
84971;DHT22;75278;51.926;4.562;2024-01-25T00:57:17;7.1;88
84971;DHT22;75278;51.926;4.562;2024-01-25T00:59:17;7.0;88
84971;DHT22;75278;51.926;4.562;2024-01-25T01:01:17;7.0;88
84971;DHT22;75278;51.926;4.562;2024-01-25T01:03:17;7.0;88
84971;DHT22;75278;51.926;4.562;2024-01-25T01:05:17;7.0;89
84971;DHT22;75278;51.926;4.562;2024-01-25T01:07:17;7.0;89
84971;DHT22;75278;51.926;4.562;2024-01-25T01:09:17;7.0;89
84971;DHT22;75278;51.926;4.562;2024-01-25T01:11:17;6.9;89
84971;DHT22;75278;51.926;4.562;2024-01-25T01:13:17;6.9;89
84971;DHT22;75278;51.926;4.562;2024-01-25T01:15:17;6.9;89
84971;DHT22;75278;51.926;4.562;2024-01-25T01:17:17;6.9;89
84971;DHT22;75278;51.926;4.562;2024-01-25T01:19:17;6.9;90
84971;DHT22;75278;51.926;4.562;2024-01-25T01:21:17;6.8;90
84971;DHT22;75278;51.926;4.562;2024-01-25T01:23:17;6.7;90
84971;DHT22;75278;51.926;4.562;2024-01-25T01:25:17;6.7;90
84971;DHT22;75278;51.926;4.562;2024-01-25T01:27:17;6.8;90
84971;DHT22;75278;51.926;4.562;2024-01-25T01:29:17;6.8;90
84971;DHT22;75278;51.926;4.562;2024-01-25T01:31:17;6.7;90
84971;DHT22;75278;51.926;4.562;2024-01-25T01:33:17;6.6;90
84971;DHT22;75278;51.926;4.562;2024-01-25T01:35:17;6.7;90
84971;DHT22;75278;51.926;4.562;2024-01-25T01:37:17;6.5;90
84971;DHT22;75278;51.926;4.562;2024-01-25T01:39:17;6.5;90
84971;DHT22;75278;51.926;4.562;2024-01-25T01:41:17;6.5;91
84971;DHT22;75278;51.926;4.562;2024-01-25T01:43:17;6.5;91
84971;DHT22;75278;51.926;4.562;2024-01-25T01:44:46;6.5;91
84971;DHT22;75278;51.926;4.562;2024-01-25T01:46:46;6.5;91
84971;DHT22;75278;51.926;4.562;2024-01-25T01:48:46;6.5;91
84971;DHT22;75278;51.926;4.562;2024-01-25T01:50:46;6.5;91
84971;DHT22;75278;51.926;4.562;2024-01-25T01:52:46;6.4;91
84971;DHT22;75278;51.926;4.562;2024-01-25T01:54:46;6.4;91
84971;DHT22;75278;51.926;4.562;2024-01-25T01:56:46;6.4;91
84971;DHT22;75278;51.926;4.562;2024-01-25T01:58:46;6.4;92
84971;DHT22;75278;51.926;4.562;2024-01-25T02:00:47;6.4;92
84971;DHT22;75278;51.926;4.562;2024-01-25T02:02:46;6.5;92
84971;DHT22;75278;51.926;4.562;2024-01-25T02:04:46;6.5;92
84971;DHT22;75278;51.926;4.562;2024-01-25T02:06:46;6.5;92
84971;DHT22;75278;51.926;4.562;2024-01-25T02:08:46;6.4;92
84971;DHT22;75278;51.926;4.562;2024-01-25T02:10:46;6.4;92
84971;DHT22;75278;51.926;4.562;2024-01-25T02:12:46;6.3;92
84971;DHT22;75278;51.926;4.562;2024-01-25T02:14:46;6.3;92
84971;DHT22;75278;51.926;4.562;2024-01-25T02:16:46;6.2;92
84971;DHT22;75278;51.926;4.562;2024-01-25T02:18:47;6.2;92
84971;DHT22;75278;51.926;4.562;2024-01-25T02:20:46;6.2;92
84971;DHT22;75278;51.926;4.562;2024-01-25T02:22:46;6.1;92
84971;DHT22;75278;51.926;4.562;2024-01-25T02:24:46;6.1;92
84971;DHT22;75278;51.926;4.562;2024-01-25T02:26:46;6.1;92
84971;DHT22;75278;51.926;4.562;2024-01-25T02:28:46;6.0;92
84971;DHT22;75278;51.926;4.562;2024-01-25T02:30:46;6.0;92
84971;DHT22;75278;51.926;4.562;2024-01-25T02:32:46;6.0;92
84971;DHT22;75278;51.926;4.562;2024-01-25T02:34:46;5.9;92
84971;DHT22;75278;51.926;4.562;2024-01-25T02:36:46;5.9;92
84971;DHT22;75278;51.926;4.562;2024-01-25T02:38:46;5.9;92
84971;DHT22;75278;51.926;4.562;2024-01-25T02:40:46;5.9;92
84971;DHT22;75278;51.926;4.562;2024-01-25T02:42:46;5.8;92
84971;DHT22;75278;51.926;4.562;2024-01-25T02:44:46;5.8;93
84971;DHT22;75278;51.926;4.562;2024-01-25T02:46:46;5.8;93
84971;DHT22;75278;51.926;4.562;2024-01-25T02:48:46;5.8;93
84971;DHT22;75278;51.926;4.562;2024-01-25T02:50:46;5.7;93
84971;DHT22;75278;51.926;4.562;2024-01-25T02:52:46;5.7;93
84971;DHT22;75278;51.926;4.562;2024-01-25T02:54:46;5.7;93
84971;DHT22;75278;51.926;4.562;2024-01-25T02:56:46;5.7;93
84971;DHT22;75278;51.926;4.562;2024-01-25T02:58:46;5.7;93
84971;DHT22;75278;51.926;4.562;2024-01-25T03:00:46;5.6;93
84971;DHT22;75278;51.926;4.562;2024-01-25T03:02:46;5.6;93
84971;DHT22;75278;51.926;4.562;2024-01-25T03:04:46;5.6;93
84971;DHT22;75278;51.926;4.562;2024-01-25T03:06:46;5.5;94
84971;DHT22;75278;51.926;4.562;2024-01-25T03:08:46;5.5;94
84971;DHT22;75278;51.926;4.562;2024-01-25T03:10:46;5.4;93
84971;DHT22;75278;51.926;4.562;2024-01-25T03:12:46;5.4;94
84971;DHT22;75278;51.926;4.562;2024-01-25T03:14:47;5.3;94
84971;DHT22;75278;51.926;4.562;2024-01-25T03:16:46;5.3;94
84971;DHT22;75278;51.926;4.562;2024-01-25T03:18:46;5.3;94
84971;DHT22;75278;51.926;4.562;2024-01-25T03:20:46;5.2;94
84971;DHT22;75278;51.926;4.562;2024-01-25T03:22:46;5.2;94
84971;DHT22;75278;51.926;4.562;2024-01-25T03:24:46;5.1;94
84971;DHT22;75278;51.926;4.562;2024-01-25T03:26:46;5.0;94
84971;DHT22;75278;51.926;4.562;2024-01-25T03:28:46;5.0;94
84971;DHT22;75278;51.926;4.562;2024-01-25T03:30:46;5.0;94
84971;DHT22;75278;51.926;4.562;2024-01-25T03:32:46;5.0;94
84971;DHT22;75278;51.926;4.562;2024-01-25T03:34:46;4.9;94
84971;DHT22;75278;51.926;4.562;2024-01-25T03:36:46;4.9;94
84971;DHT22;75278;51.926;4.562;2024-01-25T03:38:46;4.8;94
84971;DHT22;75278;51.926;4.562;2024-01-25T03:40:49;4.9;95
84971;DHT22;75278;51.926;4.562;2024-01-25T03:43:05;5.0;95
84971;DHT22;75278;51.926;4.562;2024-01-25T03:44:28;4.9;95
84971;DHT22;75278;51.926;4.562;2024-01-25T03:46:11;4.9;95
84971;DHT22;75278;51.926;4.562;2024-01-25T03:48:11;4.8;94
84971;DHT22;75278;51.926;4.562;2024-01-25T03:50:11;4.8;95
84971;DHT22;75278;51.926;4.562;2024-01-25T03:52:11;4.7;95
84971;DHT22;75278;51.926;4.562;2024-01-25T03:53:00;4.7;95
84971;DHT22;75278;51.926;4.562;2024-01-25T03:53:57;4.7;95
84971;DHT22;75278;51.926;4.562;2024-01-25T03:55:57;4.7;95
84971;DHT22;75278;51.926;4.562;2024-01-25T03:57:57;4.8;95
84971;DHT22;75278;51.926;4.562;2024-01-25T03:59:57;4.8;95
84971;DHT22;75278;51.926;4.562;2024-01-25T04:01:57;4.8;95
84971;DHT22;75278;51.926;4.562;2024-01-25T04:03:57;4.7;95
84971;DHT22;75278;51.926;4.562;2024-01-25T04:05:57;4.8;95
84971;DHT22;75278;51.926;4.562;2024-01-25T04:07:57;4.8;95
84971;DHT22;75278;51.926;4.562;2024-01-25T04:09:57;4.8;95
84971;DHT22;75278;51.926;4.562;2024-01-25T04:11:57;4.8;95
84971;DHT22;75278;51.926;4.562;2024-01-25T04:13:57;4.8;95
84971;DHT22;75278;51.926;4.562;2024-01-25T04:15:57;4.9;95
84971;DHT22;75278;51.926;4.562;2024-01-25T04:17:57;4.8;96
84971;DHT22;75278;51.926;4.562;2024-01-25T04:19:57;4.8;95
84971;DHT22;75278;51.926;4.562;2024-01-25T04:21:57;4.8;95
84971;DHT22;75278;51.926;4.562;2024-01-25T04:23:57;4.8;95
84971;DHT22;75278;51.926;4.562;2024-01-25T04:25:57;4.8;95
84971;DHT22;75278;51.926;4.562;2024-01-25T04:27:57;4.7;95
84971;DHT22;75278;51.926;4.562;2024-01-25T04:29:57;4.7;95
84971;DHT22;75278;51.926;4.562;2024-01-25T04:31:57;4.7;95
84971;DHT22;75278;51.926;4.562;2024-01-25T04:33:57;4.6;95
84971;DHT22;75278;51.926;4.562;2024-01-25T04:35:57;4.5;95
84971;DHT22;75278;51.926;4.562;2024-01-25T04:37:57;4.5;95
84971;DHT22;75278;51.926;4.562;2024-01-25T04:39:57;4.4;95
84971;DHT22;75278;51.926;4.562;2024-01-25T04:41:57;4.4;95
84971;DHT22;75278;51.926;4.562;2024-01-25T04:43:57;4.4;96
84971;DHT22;75278;51.926;4.562;2024-01-25T04:45:57;4.4;96
84971;DHT22;75278;51.926;4.562;2024-01-25T04:47:57;4.3;96
84971;DHT22;75278;51.926;4.562;2024-01-25T04:49:57;4.3;96
84971;DHT22;75278;51.926;4.562;2024-01-25T04:51:57;4.4;96
84971;DHT22;75278;51.926;4.562;2024-01-25T04:53:57;4.4;96
84971;DHT22;75278;51.926;4.562;2024-01-25T04:55:57;4.5;96
84971;DHT22;75278;51.926;4.562;2024-01-25T04:57:57;4.5;96
84971;DHT22;75278;51.926;4.562;2024-01-25T04:59:57;4.5;96
84971;DHT22;75278;51.926;4.562;2024-01-25T05:01:57;4.5;96
84971;DHT22;75278;51.926;4.562;2024-01-25T05:03:57;4.4;96
84971;DHT22;75278;51.926;4.562;2024-01-25T05:05:57;4.3;96
84971;DHT22;75278;51.926;4.562;2024-01-25T05:07:57;4.3;96
84971;DHT22;75278;51.926;4.562;2024-01-25T05:09:57;4.3;96
84971;DHT22;75278;51.926;4.562;2024-01-25T05:11:57;4.3;96
84971;DHT22;75278;51.926;4.562;2024-01-25T05:13:57;4.2;96
84971;DHT22;75278;51.926;4.562;2024-01-25T05:15:57;4.2;96
84971;DHT22;75278;51.926;4.562;2024-01-25T05:17:57;4.2;96
84971;DHT22;75278;51.926;4.562;2024-01-25T05:19:57;4.2;96
84971;DHT22;75278;51.926;4.562;2024-01-25T05:21:57;4.2;96
84971;DHT22;75278;51.926;4.562;2024-01-25T05:23:57;4.2;96
84971;DHT22;75278;51.926;4.562;2024-01-25T05:24:50;4.2;96
84971;DHT22;75278;51.926;4.562;2024-01-25T05:25:41;4.2;96
84971;DHT22;75278;51.926;4.562;2024-01-25T05:27:41;4.2;96
84971;DHT22;75278;51.926;4.562;2024-01-25T05:29:41;4.2;96
84971;DHT22;75278;51.926;4.562;2024-01-25T05:31:41;4.1;96
84971;DHT22;75278;51.926;4.562;2024-01-25T05:33:41;4.1;96
84971;DHT22;75278;51.926;4.562;2024-01-25T05:35:41;4.0;96
84971;DHT22;75278;51.926;4.562;2024-01-25T05:37:41;4.0;96
84971;DHT22;75278;51.926;4.562;2024-01-25T05:38:13;3.9;96
84971;DHT22;75278;51.926;4.562;2024-01-25T05:39:41;3.9;96
84971;DHT22;75278;51.926;4.562;2024-01-25T05:41:41;3.9;96
84971;DHT22;75278;51.926;4.562;2024-01-25T05:43:41;3.8;96
84971;DHT22;75278;51.926;4.562;2024-01-25T05:45:41;3.7;96
84971;DHT22;75278;51.926;4.562;2024-01-25T05:47:41;3.7;96
84971;DHT22;75278;51.926;4.562;2024-01-25T05:49:41;3.7;96
84971;DHT22;75278;51.926;4.562;2024-01-25T05:51:41;3.7;96
84971;DHT22;75278;51.926;4.562;2024-01-25T05:53:41;3.6;96
84971;DHT22;75278;51.926;4.562;2024-01-25T05:55:41;3.6;96
84971;DHT22;75278;51.926;4.562;2024-01-25T05:57:41;3.6;96
84971;DHT22;75278;51.926;4.562;2024-01-25T05:59:41;3.6;96
84971;DHT22;75278;51.926;4.562;2024-01-25T06:01:41;3.6;97
84971;DHT22;75278;51.926;4.562;2024-01-25T06:03:41;3.7;97
84971;DHT22;75278;51.926;4.562;2024-01-25T06:05:41;3.6;97
84971;DHT22;75278;51.926;4.562;2024-01-25T06:07:41;3.6;97
84971;DHT22;75278;51.926;4.562;2024-01-25T06:09:41;3.6;97
84971;DHT22;75278;51.926;4.562;2024-01-25T06:11:41;3.6;97
84971;DHT22;75278;51.926;4.562;2024-01-25T06:13:41;3.5;97
84971;DHT22;75278;51.926;4.562;2024-01-25T06:15:41;3.5;97
84971;DHT22;75278;51.926;4.562;2024-01-25T06:17:41;3.5;97
84971;DHT22;75278;51.926;4.562;2024-01-25T06:19:41;3.5;97
84971;DHT22;75278;51.926;4.562;2024-01-25T06:21:41;3.6;97
84971;DHT22;75278;51.926;4.562;2024-01-25T06:23:41;3.7;98
84971;DHT22;75278;51.926;4.562;2024-01-25T06:25:41;3.8;98
84971;DHT22;75278;51.926;4.562;2024-01-25T06:27:41;3.8;98
84971;DHT22;75278;51.926;4.562;2024-01-25T06:29:41;3.7;97
84971;DHT22;75278;51.926;4.562;2024-01-25T06:31:41;3.7;98
84971;DHT22;75278;51.926;4.562;2024-01-25T06:33:41;3.6;97
84971;DHT22;75278;51.926;4.562;2024-01-25T06:35:41;3.5;97
84971;DHT22;75278;51.926;4.562;2024-01-25T06:37:41;3.5;97
84971;DHT22;75278;51.926;4.562;2024-01-25T06:39:41;3.5;97
84971;DHT22;75278;51.926;4.562;2024-01-25T06:41:41;3.5;98
84971;DHT22;75278;51.926;4.562;2024-01-25T06:43:41;3.6;98
84971;DHT22;75278;51.926;4.562;2024-01-25T06:45:41;3.6;98
84971;DHT22;75278;51.926;4.562;2024-01-25T06:47:41;3.6;98
84971;DHT22;75278;51.926;4.562;2024-01-25T06:49:41;3.7;98
84971;DHT22;75278;51.926;4.562;2024-01-25T06:51:41;3.6;98
84971;DHT22;75278;51.926;4.562;2024-01-25T06:53:41;3.6;98
84971;DHT22;75278;51.926;4.562;2024-01-25T06:55:41;3.6;98
84971;DHT22;75278;51.926;4.562;2024-01-25T06:57:41;3.5;98
84971;DHT22;75278;51.926;4.562;2024-01-25T06:59:41;3.6;98
84971;DHT22;75278;51.926;4.562;2024-01-25T07:01:41;3.6;98
84971;DHT22;75278;51.926;4.562;2024-01-25T07:03:41;3.5;98
84971;DHT22;75278;51.926;4.562;2024-01-25T07:05:41;3.5;99
84971;DHT22;75278;51.926;4.562;2024-01-25T07:07:41;3.5;99
84971;DHT22;75278;51.926;4.562;2024-01-25T07:09:41;3.5;99
84971;DHT22;75278;51.926;4.562;2024-01-25T07:11:41;3.5;99
84971;DHT22;75278;51.926;4.562;2024-01-25T07:13:41;3.4;99
84971;DHT22;75278;51.926;4.562;2024-01-25T07:15:41;3.5;99
84971;DHT22;75278;51.926;4.562;2024-01-25T07:17:41;3.5;99
84971;DHT22;75278;51.926;4.562;2024-01-25T07:19:41;3.5;100
84971;DHT22;75278;51.926;4.562;2024-01-25T07:21:44;3.6;100
84971;DHT22;75278;51.926;4.562;2024-01-25T07:23:41;3.7;100
84971;DHT22;75278;51.926;4.562;2024-01-25T07:25:41;3.8;100
84971;DHT22;75278;51.926;4.562;2024-01-25T07:27:43;3.9;100
84971;DHT22;75278;51.926;4.562;2024-01-25T07:29:43;4.0;100
84971;DHT22;75278;51.926;4.562;2024-01-25T07:31:41;4.0;100
84971;DHT22;75278;51.926;4.562;2024-01-25T07:33:41;4.0;100
84971;DHT22;75278;51.926;4.562;2024-01-25T07:35:41;4.0;100
84971;DHT22;75278;51.926;4.562;2024-01-25T07:37:41;3.9;100
84971;DHT22;75278;51.926;4.562;2024-01-25T07:39:41;4.0;100
84971;DHT22;75278;51.926;4.562;2024-01-25T07:41:41;3.8;100
84971;DHT22;75278;51.926;4.562;2024-01-25T07:43:41;3.8;100
84971;DHT22;75278;51.926;4.562;2024-01-25T07:45:44;3.8;100
84971;DHT22;75278;51.926;4.562;2024-01-25T07:47:41;3.8;100
84971;DHT22;75278;51.926;4.562;2024-01-25T07:49:41;3.8;100
84971;DHT22;75278;51.926;4.562;2024-01-25T07:51:41;3.8;100
84971;DHT22;75278;51.926;4.562;2024-01-25T07:53:41;3.9;100
84971;DHT22;75278;51.926;4.562;2024-01-25T07:55:41;3.9;100
84971;DHT22;75278;51.926;4.562;2024-01-25T07:57:41;4.0;100
84971;DHT22;75278;51.926;4.562;2024-01-25T07:59:41;4.0;100
84971;DHT22;75278;51.926;4.562;2024-01-25T08:01:41;4.1;100
84971;DHT22;75278;51.926;4.562;2024-01-25T08:03:41;4.1;100
84971;DHT22;75278;51.926;4.562;2024-01-25T08:05:41;4.1;100
84971;DHT22;75278;51.926;4.562;2024-01-25T08:07:41;4.2;100
84971;DHT22;75278;51.926;4.562;2024-01-25T08:09:41;4.3;100
84971;DHT22;75278;51.926;4.562;2024-01-25T08:11:41;4.4;100
84971;DHT22;75278;51.926;4.562;2024-01-25T08:13:42;4.4;100
84971;DHT22;75278;51.926;4.562;2024-01-25T08:15:41;4.5;100
84971;DHT22;75278;51.926;4.562;2024-01-25T08:17:41;4.5;100
84971;DHT22;75278;51.926;4.562;2024-01-25T08:19:41;4.6;100
84971;DHT22;75278;51.926;4.562;2024-01-25T08:21:44;4.6;100
84971;DHT22;75278;51.926;4.562;2024-01-25T08:23:41;4.7;100
84971;DHT22;75278;51.926;4.562;2024-01-25T08:25:41;4.7;100
84971;DHT22;75278;51.926;4.562;2024-01-25T08:27:41;4.8;100
84971;DHT22;75278;51.926;4.562;2024-01-25T08:29:41;4.9;100
84971;DHT22;75278;51.926;4.562;2024-01-25T08:31:41;4.9;100
84971;DHT22;75278;51.926;4.562;2024-01-25T08:33:41;5.0;100
84971;DHT22;75278;51.926;4.562;2024-01-25T08:35:41;5.0;100
84971;DHT22;75278;51.926;4.562;2024-01-25T08:37:41;5.1;100
84971;DHT22;75278;51.926;4.562;2024-01-25T08:39:41;5.1;100
84971;DHT22;75278;51.926;4.562;2024-01-25T08:41:41;5.1;99
84971;DHT22;75278;51.926;4.562;2024-01-25T08:43:41;5.1;99
84971;DHT22;75278;51.926;4.562;2024-01-25T08:45:41;5.2;99
84971;DHT22;75278;51.926;4.562;2024-01-25T08:47:41;5.2;99
84971;DHT22;75278;51.926;4.562;2024-01-25T08:49:41;5.2;99
84971;DHT22;75278;51.926;4.562;2024-01-25T08:51:41;5.2;99
84971;DHT22;75278;51.926;4.562;2024-01-25T08:53:41;5.3;99
84971;DHT22;75278;51.926;4.562;2024-01-25T08:55:41;5.4;99
84971;DHT22;75278;51.926;4.562;2024-01-25T08:57:41;5.4;99
84971;DHT22;75278;51.926;4.562;2024-01-25T08:59:41;5.4;99
84971;DHT22;75278;51.926;4.562;2024-01-25T09:01:41;5.3;100
84971;DHT22;75278;51.926;4.562;2024-01-25T09:03:41;5.3;100
84971;DHT22;75278;51.926;4.562;2024-01-25T09:05:41;5.4;100
84971;DHT22;75278;51.926;4.562;2024-01-25T09:07:41;5.4;100
84971;DHT22;75278;51.926;4.562;2024-01-25T09:09:41;5.5;100
84971;DHT22;75278;51.926;4.562;2024-01-25T09:11:41;5.6;100
84971;DHT22;75278;51.926;4.562;2024-01-25T09:13:41;5.6;100
84971;DHT22;75278;51.926;4.562;2024-01-25T09:15:41;5.6;100
84971;DHT22;75278;51.926;4.562;2024-01-25T09:17:41;5.6;99
84971;DHT22;75278;51.926;4.562;2024-01-25T09:19:41;5.6;99
84971;DHT22;75278;51.926;4.562;2024-01-25T09:21:41;5.6;99
84971;DHT22;75278;51.926;4.562;2024-01-25T09:23:41;5.7;99
84971;DHT22;75278;51.926;4.562;2024-01-25T09:25:41;5.7;99
84971;DHT22;75278;51.926;4.562;2024-01-25T09:27:41;5.9;98
84971;DHT22;75278;51.926;4.562;2024-01-25T09:29:42;6.0;98
84971;DHT22;75278;51.926;4.562;2024-01-25T09:31:41;6.0;97
84971;DHT22;75278;51.926;4.562;2024-01-25T09:33:41;6.0;97
84971;DHT22;75278;51.926;4.562;2024-01-25T09:35:41;6.0;97
84971;DHT22;75278;51.926;4.562;2024-01-25T09:37:41;6.0;97
84971;DHT22;75278;51.926;4.562;2024-01-25T11:10:21;6.9;96
84971;DHT22;75278;51.926;4.562;2024-01-25T11:12:20;7.0;96
84971;DHT22;75278;51.926;4.562;2024-01-25T11:14:20;7.0;96
84971;DHT22;75278;51.926;4.562;2024-01-25T11:16:27;7.0;96
84971;DHT22;75278;51.926;4.562;2024-01-25T11:18:20;7.1;96
84971;DHT22;75278;51.926;4.562;2024-01-25T11:20:21;7.1;96
84971;DHT22;75278;51.926;4.562;2024-01-25T11:22:20;7.2;96
84971;DHT22;75278;51.926;4.562;2024-01-25T11:24:21;7.2;96
84971;DHT22;75278;51.926;4.562;2024-01-25T11:26:24;7.3;96
84971;DHT22;75278;51.926;4.562;2024-01-25T11:28:20;7.3;96
84971;DHT22;75278;51.926;4.562;2024-01-25T11:30:20;7.4;96
84971;DHT22;75278;51.926;4.562;2024-01-25T11:32:20;7.5;96
84971;DHT22;75278;51.926;4.562;2024-01-25T11:34:20;7.5;95
84971;DHT22;75278;51.926;4.562;2024-01-25T11:36:20;7.6;95
84971;DHT22;75278;51.926;4.562;2024-01-25T11:38:20;7.7;95
84971;DHT22;75278;51.926;4.562;2024-01-25T11:40:20;7.8;95
84971;DHT22;75278;51.926;4.562;2024-01-25T11:42:20;7.9;95
84971;DHT22;75278;51.926;4.562;2024-01-25T11:44:20;7.9;95
84971;DHT22;75278;51.926;4.562;2024-01-25T11:58:45;8.2;92
84971;DHT22;75278;51.926;4.562;2024-01-25T12:00:39;8.3;92
84971;DHT22;75278;51.926;4.562;2024-01-25T12:02:39;8.3;92
84971;DHT22;75278;51.926;4.562;2024-01-25T12:04:39;8.3;91
84971;DHT22;75278;51.926;4.562;2024-01-25T12:06:39;8.3;91
84971;DHT22;75278;51.926;4.562;2024-01-25T12:08:39;8.3;91
84971;DHT22;75278;51.926;4.562;2024-01-25T12:10:39;8.4;91
84971;DHT22;75278;51.926;4.562;2024-01-25T12:12:39;8.4;91
84971;DHT22;75278;51.926;4.562;2024-01-25T12:14:40;8.4;91
84971;DHT22;75278;51.926;4.562;2024-01-25T12:16:39;8.4;91
84971;DHT22;75278;51.926;4.562;2024-01-25T12:18:39;8.4;91
84971;DHT22;75278;51.926;4.562;2024-01-25T12:20:39;8.4;91
84971;DHT22;75278;51.926;4.562;2024-01-25T12:22:39;8.5;91
84971;DHT22;75278;51.926;4.562;2024-01-25T12:24:39;8.5;91
84971;DHT22;75278;51.926;4.562;2024-01-25T12:26:41;8.5;91
84971;DHT22;75278;51.926;4.562;2024-01-25T12:28:39;8.5;90
84971;DHT22;75278;51.926;4.562;2024-01-25T12:30:39;8.5;91
84971;DHT22;75278;51.926;4.562;2024-01-25T12:32:39;8.6;91
84971;DHT22;75278;51.926;4.562;2024-01-25T12:34:39;8.6;91
84971;DHT22;75278;51.926;4.562;2024-01-25T12:36:39;8.6;91
84971;DHT22;75278;51.926;4.562;2024-01-25T12:38:39;8.7;91
84971;DHT22;75278;51.926;4.562;2024-01-25T12:40:41;8.7;90
84971;DHT22;75278;51.926;4.562;2024-01-25T12:42:42;8.7;90
84971;DHT22;75278;51.926;4.562;2024-01-25T12:44:39;8.7;90
84971;DHT22;75278;51.926;4.562;2024-01-25T12:46:39;8.7;90
84971;DHT22;75278;51.926;4.562;2024-01-25T12:48:39;8.8;90
84971;DHT22;75278;51.926;4.562;2024-01-25T12:50:39;8.9;90
84971;DHT22;75278;51.926;4.562;2024-01-25T12:52:39;8.8;90
84971;DHT22;75278;51.926;4.562;2024-01-25T12:54:43;8.9;90
84971;DHT22;75278;51.926;4.562;2024-01-25T12:56:39;8.9;90
84971;DHT22;75278;51.926;4.562;2024-01-25T12:58:39;9.0;90
84971;DHT22;75278;51.926;4.562;2024-01-25T13:00:39;9.0;90
84971;DHT22;75278;51.926;4.562;2024-01-25T13:02:39;9.0;90
84971;DHT22;75278;51.926;4.562;2024-01-25T13:04:39;9.0;89
84971;DHT22;75278;51.926;4.562;2024-01-25T13:06:39;9.1;90
84971;DHT22;75278;51.926;4.562;2024-01-25T13:08:39;9.1;90
84971;DHT22;75278;51.926;4.562;2024-01-25T13:10:39;9.2;90
84971;DHT22;75278;51.926;4.562;2024-01-25T13:12:39;9.2;90
84971;DHT22;75278;51.926;4.562;2024-01-25T13:14:39;9.3;90
84971;DHT22;75278;51.926;4.562;2024-01-25T13:16:39;9.3;89
84971;DHT22;75278;51.926;4.562;2024-01-25T13:18:39;9.3;89
84971;DHT22;75278;51.926;4.562;2024-01-25T13:20:39;9.3;89
84971;DHT22;75278;51.926;4.562;2024-01-25T13:22:39;9.3;89
84971;DHT22;75278;51.926;4.562;2024-01-25T13:24:39;9.3;89
84971;DHT22;75278;51.926;4.562;2024-01-25T13:26:39;9.3;89
84971;DHT22;75278;51.926;4.562;2024-01-25T13:28:40;9.3;89
84971;DHT22;75278;51.926;4.562;2024-01-25T13:30:39;9.3;89
84971;DHT22;75278;51.926;4.562;2024-01-25T13:32:39;9.3;89
84971;DHT22;75278;51.926;4.562;2024-01-25T13:34:39;9.3;89
84971;DHT22;75278;51.926;4.562;2024-01-25T13:36:39;9.3;90
84971;DHT22;75278;51.926;4.562;2024-01-25T13:38:39;9.2;90
84971;DHT22;75278;51.926;4.562;2024-01-25T13:40:39;9.2;90
84971;DHT22;75278;51.926;4.562;2024-01-25T13:42:39;9.2;90
84971;DHT22;75278;51.926;4.562;2024-01-25T13:44:39;9.1;90
84971;DHT22;75278;51.926;4.562;2024-01-25T13:46:39;9.1;91
84971;DHT22;75278;51.926;4.562;2024-01-25T13:48:39;9.1;91
84971;DHT22;75278;51.926;4.562;2024-01-25T13:50:39;9.1;91
84971;DHT22;75278;51.926;4.562;2024-01-25T13:52:39;9.1;92
84971;DHT22;75278;51.926;4.562;2024-01-25T13:54:39;9.1;92
84971;DHT22;75278;51.926;4.562;2024-01-25T13:56:39;9.1;92
84971;DHT22;75278;51.926;4.562;2024-01-25T14:13:01;unknown;unknown
84971;DHT22;75278;51.926;4.562;2024-01-25T14:14:24;9.1;92
84971;DHT22;75278;51.926;4.562;2024-01-25T14:16:24;9.1;93
84971;DHT22;75278;51.926;4.562;2024-01-25T14:18:26;9.1;93
84971;DHT22;75278;51.926;4.562;2024-01-25T14:20:24;9.1;93
84971;DHT22;75278;51.926;4.562;2024-01-25T14:22:24;9.1;93
84971;DHT22;75278;51.926;4.562;2024-01-25T14:24:24;9.1;93
84971;DHT22;75278;51.926;4.562;2024-01-25T14:26:24;9.1;93
84971;DHT22;75278;51.926;4.562;2024-01-25T14:28:24;9.1;93
84971;DHT22;75278;51.926;4.562;2024-01-25T14:30:24;9.1;93
84971;DHT22;75278;51.926;4.562;2024-01-25T14:32:24;9.1;93
84971;DHT22;75278;51.926;4.562;2024-01-25T14:34:24;9.1;94
84971;DHT22;75278;51.926;4.562;2024-01-25T14:36:24;9.1;94
84971;DHT22;75278;51.926;4.562;2024-01-25T14:38:24;9.1;94
84971;DHT22;75278;51.926;4.562;2024-01-25T14:40:27;9.0;94
84971;DHT22;75278;51.926;4.562;2024-01-25T14:42:24;9.0;94
84971;DHT22;75278;51.926;4.562;2024-01-25T14:44:24;9.0;94
84971;DHT22;75278;51.926;4.562;2024-01-25T14:46:24;9.1;95
84971;DHT22;75278;51.926;4.562;2024-01-25T14:48:24;9.1;94
84971;DHT22;75278;51.926;4.562;2024-01-25T14:50:24;9.2;94
84971;DHT22;75278;51.926;4.562;2024-01-25T14:52:27;9.2;94
84971;DHT22;75278;51.926;4.562;2024-01-25T14:54:25;9.2;94
84971;DHT22;75278;51.926;4.562;2024-01-25T14:56:24;9.2;94
84971;DHT22;75278;51.926;4.562;2024-01-25T14:58:28;9.2;94
84971;DHT22;75278;51.926;4.562;2024-01-25T15:00:24;9.2;94
84971;DHT22;75278;51.926;4.562;2024-01-25T15:02:24;9.1;94
84971;DHT22;75278;51.926;4.562;2024-01-25T15:04:24;9.1;95
84971;DHT22;75278;51.926;4.562;2024-01-25T15:06:24;9.0;95
84971;DHT22;75278;51.926;4.562;2024-01-25T15:08:24;9.0;95
84971;DHT22;75278;51.926;4.562;2024-01-25T15:10:24;9.0;96
84971;DHT22;75278;51.926;4.562;2024-01-25T15:12:24;9.1;95
84971;DHT22;75278;51.926;4.562;2024-01-25T15:14:24;9.1;95
84971;DHT22;75278;51.926;4.562;2024-01-25T15:16:24;9.1;95
84971;DHT22;75278;51.926;4.562;2024-01-25T15:18:24;9.1;95
84971;DHT22;75278;51.926;4.562;2024-01-25T15:20:24;9.1;95
84971;DHT22;75278;51.926;4.562;2024-01-25T15:22:24;9.1;96
84971;DHT22;75278;51.926;4.562;2024-01-25T15:24:24;9.1;96
84971;DHT22;75278;51.926;4.562;2024-01-25T15:26:27;9.1;96
84971;DHT22;75278;51.926;4.562;2024-01-25T15:28:24;9.1;96
84971;DHT22;75278;51.926;4.562;2024-01-25T15:30:24;9.1;96